sensor_id;sensor_type;location;lat;lon;timestamp;temperature;humidity
13808;DHT22;40769;51.512;5.494;2022-10-16T00:01:27;16.50;99.90
13808;DHT22;40769;51.512;5.494;2022-10-16T00:03:53;16.50;99.90
13808;DHT22;40769;51.512;5.494;2022-10-16T00:06:21;16.60;99.90
13808;DHT22;40769;51.512;5.494;2022-10-16T00:08:48;16.50;99.90
13808;DHT22;40769;51.512;5.494;2022-10-16T00:11:20;16.50;99.90
13808;DHT22;40769;51.512;5.494;2022-10-16T00:13:47;16.50;99.90
13808;DHT22;40769;51.512;5.494;2022-10-16T00:16:13;16.50;99.90
13808;DHT22;40769;51.512;5.494;2022-10-16T00:18:40;16.50;99.90
13808;DHT22;40769;51.512;5.494;2022-10-16T00:21:08;16.50;99.90
13808;DHT22;40769;51.512;5.494;2022-10-16T00:23:35;16.50;99.90
13808;DHT22;40769;51.512;5.494;2022-10-16T00:26:03;16.50;99.90
13808;DHT22;40769;51.512;5.494;2022-10-16T00:28:30;16.50;99.90
13808;DHT22;40769;51.512;5.494;2022-10-16T00:30:56;16.50;99.90
13808;DHT22;40769;51.512;5.494;2022-10-16T00:33:21;16.40;99.90
13808;DHT22;40769;51.512;5.494;2022-10-16T00:35:47;16.30;99.90
13808;DHT22;40769;51.512;5.494;2022-10-16T00:38:13;16.20;99.90
13808;DHT22;40769;51.512;5.494;2022-10-16T00:40:39;16.20;99.90
13808;DHT22;40769;51.512;5.494;2022-10-16T00:45:57;15.60;99.90
13808;DHT22;40769;51.512;5.494;2022-10-16T00:48:23;16.10;99.90
13808;DHT22;40769;51.512;5.494;2022-10-16T00:50:49;16.10;99.90
13808;DHT22;40769;51.512;5.494;2022-10-16T00:53:15;16.10;99.90
13808;DHT22;40769;51.512;5.494;2022-10-16T00:55:41;16.10;99.90
13808;DHT22;40769;51.512;5.494;2022-10-16T00:58:07;16.00;99.90
13808;DHT22;40769;51.512;5.494;2022-10-16T01:00:33;16.20;99.90
13808;DHT22;40769;51.512;5.494;2022-10-16T01:03:00;16.30;99.90
13808;DHT22;40769;51.512;5.494;2022-10-16T01:05:39;16.20;99.90
13808;DHT22;40769;51.512;5.494;2022-10-16T01:08:19;16.20;99.90
13808;DHT22;40769;51.512;5.494;2022-10-16T01:11:13;16.30;99.90
13808;DHT22;40769;51.512;5.494;2022-10-16T01:13:47;16.20;99.90
13808;DHT22;40769;51.512;5.494;2022-10-16T01:16:29;16.20;99.90
13808;DHT22;40769;51.512;5.494;2022-10-16T01:19:18;16.20;99.90
13808;DHT22;40769;51.512;5.494;2022-10-16T01:21:47;16.20;99.90
13808;DHT22;40769;51.512;5.494;2022-10-16T01:29:44;16.10;99.90
13808;DHT22;40769;51.512;5.494;2022-10-16T01:32:49;16.20;99.90
13808;DHT22;40769;51.512;5.494;2022-10-16T01:35:25;16.20;99.90
13808;DHT22;40769;51.512;5.494;2022-10-16T01:40:38;16.20;99.90
13808;DHT22;40769;51.512;5.494;2022-10-16T01:45:33;16.20;99.90
13808;DHT22;40769;51.512;5.494;2022-10-16T01:48:01;16.10;99.90
13808;DHT22;40769;51.512;5.494;2022-10-16T01:50:32;16.10;99.90
13808;DHT22;40769;51.512;5.494;2022-10-16T01:52:59;16.00;99.90
13808;DHT22;40769;51.512;5.494;2022-10-16T01:55:32;15.90;99.90
13808;DHT22;40769;51.512;5.494;2022-10-16T01:57:59;16.10;99.90
13808;DHT22;40769;51.512;5.494;2022-10-16T02:00:29;16.10;99.90
13808;DHT22;40769;51.512;5.494;2022-10-16T02:02:57;16.10;99.90
13808;DHT22;40769;51.512;5.494;2022-10-16T02:05:42;15.50;99.90
13808;DHT22;40769;51.512;5.494;2022-10-16T02:08:10;16.20;99.90
13808;DHT22;40769;51.512;5.494;2022-10-16T02:10:37;16.20;99.90
13808;DHT22;40769;51.512;5.494;2022-10-16T02:13:07;16.20;99.90
13808;DHT22;40769;51.512;5.494;2022-10-16T02:15:34;16.30;99.90
13808;DHT22;40769;51.512;5.494;2022-10-16T02:18:02;16.30;99.90
13808;DHT22;40769;51.512;5.494;2022-10-16T02:20:31;16.30;99.90
13808;DHT22;40769;51.512;5.494;2022-10-16T02:22:58;16.30;99.90
13808;DHT22;40769;51.512;5.494;2022-10-16T02:25:32;16.30;99.90
13808;DHT22;40769;51.512;5.494;2022-10-16T02:28:07;16.30;99.90
13808;DHT22;40769;51.512;5.494;2022-10-16T02:30:38;16.30;99.90
13808;DHT22;40769;51.512;5.494;2022-10-16T02:33:09;16.30;99.90
13808;DHT22;40769;51.512;5.494;2022-10-16T02:35:35;16.30;99.90
13808;DHT22;40769;51.512;5.494;2022-10-16T02:38:02;16.20;99.90
13808;DHT22;40769;51.512;5.494;2022-10-16T02:40:29;16.20;99.90
13808;DHT22;40769;51.512;5.494;2022-10-16T02:42:55;16.20;99.90
13808;DHT22;40769;51.512;5.494;2022-10-16T02:45:21;16.20;99.90
13808;DHT22;40769;51.512;5.494;2022-10-16T02:47:48;16.10;99.90
13808;DHT22;40769;51.512;5.494;2022-10-16T02:50:14;16.10;99.90
13808;DHT22;40769;51.512;5.494;2022-10-16T02:52:39;16.10;99.90
13808;DHT22;40769;51.512;5.494;2022-10-16T02:55:05;16.10;99.90
13808;DHT22;40769;51.512;5.494;2022-10-16T02:57:31;16.10;99.90
13808;DHT22;40769;51.512;5.494;2022-10-16T02:59:57;16.10;99.90
13808;DHT22;40769;51.512;5.494;2022-10-16T03:02:23;16.00;99.90
13808;DHT22;40769;51.512;5.494;2022-10-16T03:04:49;15.90;99.90
13808;DHT22;40769;51.512;5.494;2022-10-16T03:07:15;15.80;99.90
13808;DHT22;40769;51.512;5.494;2022-10-16T03:09:40;15.80;99.90
13808;DHT22;40769;51.512;5.494;2022-10-16T03:12:06;15.70;99.90
13808;DHT22;40769;51.512;5.494;2022-10-16T03:14:32;15.70;99.90
13808;DHT22;40769;51.512;5.494;2022-10-16T03:16:57;15.80;99.90
13808;DHT22;40769;51.512;5.494;2022-10-16T03:19:23;15.80;99.90
13808;DHT22;40769;51.512;5.494;2022-10-16T03:21:49;15.70;99.90
13808;DHT22;40769;51.512;5.494;2022-10-16T03:24:14;15.80;99.90
13808;DHT22;40769;51.512;5.494;2022-10-16T03:26:40;15.80;99.90
13808;DHT22;40769;51.512;5.494;2022-10-16T03:29:06;15.80;99.90
13808;DHT22;40769;51.512;5.494;2022-10-16T03:31:32;15.80;99.90
13808;DHT22;40769;51.512;5.494;2022-10-16T03:33:57;15.80;99.90
13808;DHT22;40769;51.512;5.494;2022-10-16T03:36:23;15.80;99.90
13808;DHT22;40769;51.512;5.494;2022-10-16T03:38:48;15.80;99.90
13808;DHT22;40769;51.512;5.494;2022-10-16T03:41:14;15.80;99.90
13808;DHT22;40769;51.512;5.494;2022-10-16T03:43:39;15.90;99.90
13808;DHT22;40769;51.512;5.494;2022-10-16T03:46:05;15.90;99.90
13808;DHT22;40769;51.512;5.494;2022-10-16T03:48:31;15.80;99.90
13808;DHT22;40769;51.512;5.494;2022-10-16T03:50:57;15.90;99.90
13808;DHT22;40769;51.512;5.494;2022-10-16T03:53:23;16.20;99.90
13808;DHT22;40769;51.512;5.494;2022-10-16T03:55:48;15.90;99.90
13808;DHT22;40769;51.512;5.494;2022-10-16T03:58:14;15.90;99.90
13808;DHT22;40769;51.512;5.494;2022-10-16T04:00:44;15.90;99.90
13808;DHT22;40769;51.512;5.494;2022-10-16T04:03:10;15.90;99.90
13808;DHT22;40769;51.512;5.494;2022-10-16T04:05:36;15.70;99.90
13808;DHT22;40769;51.512;5.494;2022-10-16T04:08:02;15.80;99.90
13808;DHT22;40769;51.512;5.494;2022-10-16T04:10:27;15.90;99.90
13808;DHT22;40769;51.512;5.494;2022-10-16T04:12:53;15.80;99.90
13808;DHT22;40769;51.512;5.494;2022-10-16T04:15:21;15.90;99.90
13808;DHT22;40769;51.512;5.494;2022-10-16T04:17:47;15.80;99.90
13808;DHT22;40769;51.512;5.494;2022-10-16T04:20:13;15.80;99.90
13808;DHT22;40769;51.512;5.494;2022-10-16T04:22:38;15.70;99.90
13808;DHT22;40769;51.512;5.494;2022-10-16T04:25:04;15.60;99.90
13808;DHT22;40769;51.512;5.494;2022-10-16T04:27:30;15.70;99.90
13808;DHT22;40769;51.512;5.494;2022-10-16T04:29:57;15.80;99.90
13808;DHT22;40769;51.512;5.494;2022-10-16T04:32:23;15.70;99.90
13808;DHT22;40769;51.512;5.494;2022-10-16T04:34:48;15.80;99.90
13808;DHT22;40769;51.512;5.494;2022-10-16T04:37:14;15.80;99.90
13808;DHT22;40769;51.512;5.494;2022-10-16T04:39:40;15.80;99.90
13808;DHT22;40769;51.512;5.494;2022-10-16T04:42:05;15.80;99.90
13808;DHT22;40769;51.512;5.494;2022-10-16T04:44:31;15.80;99.90
13808;DHT22;40769;51.512;5.494;2022-10-16T04:46:57;15.90;99.90
13808;DHT22;40769;51.512;5.494;2022-10-16T04:49:22;15.90;99.90
13808;DHT22;40769;51.512;5.494;2022-10-16T04:51:48;15.90;99.90
13808;DHT22;40769;51.512;5.494;2022-10-16T04:54:13;15.90;99.90
13808;DHT22;40769;51.512;5.494;2022-10-16T04:56:39;15.90;99.90
13808;DHT22;40769;51.512;5.494;2022-10-16T04:59:13;15.90;99.90
13808;DHT22;40769;51.512;5.494;2022-10-16T05:01:39;15.90;99.90
13808;DHT22;40769;51.512;5.494;2022-10-16T05:04:05;15.90;99.90
13808;DHT22;40769;51.512;5.494;2022-10-16T05:06:30;15.80;99.90
13808;DHT22;40769;51.512;5.494;2022-10-16T05:08:56;15.90;99.90
13808;DHT22;40769;51.512;5.494;2022-10-16T05:11:22;15.90;99.90
13808;DHT22;40769;51.512;5.494;2022-10-16T05:13:47;15.80;99.90
13808;DHT22;40769;51.512;5.494;2022-10-16T05:16:13;15.90;99.90
13808;DHT22;40769;51.512;5.494;2022-10-16T05:18:38;15.80;99.90
13808;DHT22;40769;51.512;5.494;2022-10-16T05:21:04;15.80;99.90
13808;DHT22;40769;51.512;5.494;2022-10-16T05:23:31;15.80;99.90
13808;DHT22;40769;51.512;5.494;2022-10-16T05:25:57;15.80;99.90
13808;DHT22;40769;51.512;5.494;2022-10-16T05:28:27;15.70;99.90
13808;DHT22;40769;51.512;5.494;2022-10-16T05:30:53;15.80;99.90
13808;DHT22;40769;51.512;5.494;2022-10-16T05:33:23;15.70;99.90
13808;DHT22;40769;51.512;5.494;2022-10-16T05:35:50;15.60;99.90
13808;DHT22;40769;51.512;5.494;2022-10-16T05:38:16;15.60;99.90
13808;DHT22;40769;51.512;5.494;2022-10-16T05:40:42;15.60;99.90
13808;DHT22;40769;51.512;5.494;2022-10-16T05:43:07;15.70;99.90
13808;DHT22;40769;51.512;5.494;2022-10-16T05:45:33;15.60;99.90
13808;DHT22;40769;51.512;5.494;2022-10-16T05:47:59;15.60;99.90
13808;DHT22;40769;51.512;5.494;2022-10-16T05:50:25;15.60;99.90
13808;DHT22;40769;51.512;5.494;2022-10-16T05:52:51;15.60;99.90
13808;DHT22;40769;51.512;5.494;2022-10-16T05:55:16;15.60;99.90
13808;DHT22;40769;51.512;5.494;2022-10-16T05:57:42;15.50;99.90
13808;DHT22;40769;51.512;5.494;2022-10-16T06:00:08;15.50;99.90
13808;DHT22;40769;51.512;5.494;2022-10-16T06:02:34;15.40;99.90
13808;DHT22;40769;51.512;5.494;2022-10-16T06:04:59;15.40;99.90
13808;DHT22;40769;51.512;5.494;2022-10-16T06:07:25;15.40;99.90
13808;DHT22;40769;51.512;5.494;2022-10-16T06:09:51;15.30;99.90
13808;DHT22;40769;51.512;5.494;2022-10-16T06:12:17;15.20;99.90
13808;DHT22;40769;51.512;5.494;2022-10-16T06:14:44;15.20;99.90
13808;DHT22;40769;51.512;5.494;2022-10-16T06:17:09;15.10;99.90
13808;DHT22;40769;51.512;5.494;2022-10-16T06:19:35;15.20;99.90
13808;DHT22;40769;51.512;5.494;2022-10-16T06:22:01;15.20;99.90
13808;DHT22;40769;51.512;5.494;2022-10-16T06:24:28;15.10;99.90
13808;DHT22;40769;51.512;5.494;2022-10-16T06:26:53;15.20;99.90
13808;DHT22;40769;51.512;5.494;2022-10-16T06:29:19;15.20;99.90
13808;DHT22;40769;51.512;5.494;2022-10-16T06:31:44;15.30;99.90
13808;DHT22;40769;51.512;5.494;2022-10-16T06:34:10;15.40;99.90
13808;DHT22;40769;51.512;5.494;2022-10-16T06:36:37;15.50;99.90
13808;DHT22;40769;51.512;5.494;2022-10-16T06:39:04;15.60;99.90
13808;DHT22;40769;51.512;5.494;2022-10-16T06:41:30;15.70;99.90
13808;DHT22;40769;51.512;5.494;2022-10-16T06:43:56;15.80;99.90
13808;DHT22;40769;51.512;5.494;2022-10-16T06:46:24;15.90;99.90
13808;DHT22;40769;51.512;5.494;2022-10-16T06:48:50;15.90;99.90
13808;DHT22;40769;51.512;5.494;2022-10-16T06:51:18;16.00;99.90
13808;DHT22;40769;51.512;5.494;2022-10-16T06:53:51;16.00;99.90
13808;DHT22;40769;51.512;5.494;2022-10-16T06:56:22;16.10;99.90
13808;DHT22;40769;51.512;5.494;2022-10-16T06:58:48;16.20;99.90
13808;DHT22;40769;51.512;5.494;2022-10-16T07:01:15;16.30;99.90
13808;DHT22;40769;51.512;5.494;2022-10-16T07:03:43;16.40;99.90
13808;DHT22;40769;51.512;5.494;2022-10-16T07:06:10;16.60;99.90
13808;DHT22;40769;51.512;5.494;2022-10-16T07:08:38;16.70;99.90
13808;DHT22;40769;51.512;5.494;2022-10-16T07:11:06;16.90;99.90
13808;DHT22;40769;51.512;5.494;2022-10-16T07:13:35;17.10;99.90
13808;DHT22;40769;51.512;5.494;2022-10-16T07:16:09;17.30;99.90
13808;DHT22;40769;51.512;5.494;2022-10-16T07:18:35;17.40;99.90
13808;DHT22;40769;51.512;5.494;2022-10-16T07:23:30;17.70;99.90
13808;DHT22;40769;51.512;5.494;2022-10-16T07:25:56;18.00;99.90
13808;DHT22;40769;51.512;5.494;2022-10-16T07:28:22;18.00;99.90
13808;DHT22;40769;51.512;5.494;2022-10-16T07:30:48;18.20;99.90
13808;DHT22;40769;51.512;5.494;2022-10-16T07:33:14;18.30;99.90
13808;DHT22;40769;51.512;5.494;2022-10-16T07:35:51;18.50;99.90
13808;DHT22;40769;51.512;5.494;2022-10-16T07:38:17;18.60;99.90
13808;DHT22;40769;51.512;5.494;2022-10-16T07:40:42;18.70;99.90
13808;DHT22;40769;51.512;5.494;2022-10-16T07:43:08;18.90;99.90
13808;DHT22;40769;51.512;5.494;2022-10-16T07:45:34;19.00;99.90
13808;DHT22;40769;51.512;5.494;2022-10-16T07:47:59;19.20;99.90
13808;DHT22;40769;51.512;5.494;2022-10-16T07:50:25;19.30;99.90
13808;DHT22;40769;51.512;5.494;2022-10-16T07:52:51;19.40;99.90
13808;DHT22;40769;51.512;5.494;2022-10-16T07:55:17;19.50;99.90
13808;DHT22;40769;51.512;5.494;2022-10-16T07:57:42;19.60;99.90
13808;DHT22;40769;51.512;5.494;2022-10-16T08:00:08;19.70;99.90
13808;DHT22;40769;51.512;5.494;2022-10-16T08:02:39;19.80;99.90
13808;DHT22;40769;51.512;5.494;2022-10-16T08:05:06;19.90;99.90
13808;DHT22;40769;51.512;5.494;2022-10-16T08:07:35;20.00;99.90
13808;DHT22;40769;51.512;5.494;2022-10-16T08:10:00;20.10;99.90
13808;DHT22;40769;51.512;5.494;2022-10-16T08:12:26;20.20;99.90
13808;DHT22;40769;51.512;5.494;2022-10-16T08:14:52;20.20;99.90
13808;DHT22;40769;51.512;5.494;2022-10-16T08:17:17;20.40;99.90
13808;DHT22;40769;51.512;5.494;2022-10-16T08:19:46;20.30;99.90
13808;DHT22;40769;51.512;5.494;2022-10-16T08:22:15;20.40;99.90
13808;DHT22;40769;51.512;5.494;2022-10-16T08:24:41;20.40;99.90
13808;DHT22;40769;51.512;5.494;2022-10-16T08:27:07;20.50;99.90
13808;DHT22;40769;51.512;5.494;2022-10-16T08:29:34;20.50;99.90
13808;DHT22;40769;51.512;5.494;2022-10-16T08:31:59;20.50;99.90
13808;DHT22;40769;51.512;5.494;2022-10-16T08:34:25;20.60;99.90
13808;DHT22;40769;51.512;5.494;2022-10-16T08:36:53;20.60;99.90
13808;DHT22;40769;51.512;5.494;2022-10-16T08:39:19;20.60;99.90
13808;DHT22;40769;51.512;5.494;2022-10-16T08:44:53;20.60;99.90
13808;DHT22;40769;51.512;5.494;2022-10-16T08:47:43;20.60;99.90
13808;DHT22;40769;51.512;5.494;2022-10-16T08:50:12;20.70;99.90
13808;DHT22;40769;51.512;5.494;2022-10-16T08:52:43;20.80;99.90
13808;DHT22;40769;51.512;5.494;2022-10-16T08:55:42;20.90;99.90
13808;DHT22;40769;51.512;5.494;2022-10-16T08:58:22;21.00;99.90
13808;DHT22;40769;51.512;5.494;2022-10-16T09:00:55;21.10;99.90
13808;DHT22;40769;51.512;5.494;2022-10-16T09:03:49;21.20;99.90
13808;DHT22;40769;51.512;5.494;2022-10-16T09:20:32;21.60;99.90
13808;DHT22;40769;51.512;5.494;2022-10-16T09:23:22;21.60;99.90
13808;DHT22;40769;51.512;5.494;2022-10-16T09:25:50;21.70;99.90
13808;DHT22;40769;51.512;5.494;2022-10-16T09:28:17;21.80;99.90
13808;DHT22;40769;51.512;5.494;2022-10-16T09:30:43;21.80;99.90
13808;DHT22;40769;51.512;5.494;2022-10-16T09:33:11;22.00;99.90
13808;DHT22;40769;51.512;5.494;2022-10-16T09:35:43;22.10;99.90
13808;DHT22;40769;51.512;5.494;2022-10-16T09:38:21;22.20;99.90
13808;DHT22;40769;51.512;5.494;2022-10-16T09:40:47;22.30;99.90
13808;DHT22;40769;51.512;5.494;2022-10-16T09:43:35;22.40;99.90
13808;DHT22;40769;51.512;5.494;2022-10-16T09:46:06;22.50;99.90
13808;DHT22;40769;51.512;5.494;2022-10-16T09:48:39;22.20;99.90
13808;DHT22;40769;51.512;5.494;2022-10-16T09:51:25;22.60;99.90
13808;DHT22;40769;51.512;5.494;2022-10-16T09:54:18;22.70;99.90
13808;DHT22;40769;51.512;5.494;2022-10-16T09:56:44;22.80;99.90
13808;DHT22;40769;51.512;5.494;2022-10-16T09:59:21;22.90;99.90
13808;DHT22;40769;51.512;5.494;2022-10-16T10:01:51;23.00;99.90
13808;DHT22;40769;51.512;5.494;2022-10-16T10:04:18;23.10;99.90
13808;DHT22;40769;51.512;5.494;2022-10-16T10:06:45;23.20;99.90
13808;DHT22;40769;51.512;5.494;2022-10-16T10:09:26;23.30;99.90
13808;DHT22;40769;51.512;5.494;2022-10-16T10:11:58;23.40;99.90
13808;DHT22;40769;51.512;5.494;2022-10-16T10:17:01;23.50;99.90
13808;DHT22;40769;51.512;5.494;2022-10-16T10:19:27;23.60;99.90
13808;DHT22;40769;51.512;5.494;2022-10-16T10:21:53;23.70;99.90
13808;DHT22;40769;51.512;5.494;2022-10-16T10:24:19;23.80;99.90
13808;DHT22;40769;51.512;5.494;2022-10-16T10:32:41;24.00;99.90
13808;DHT22;40769;51.512;5.494;2022-10-16T10:35:18;24.00;99.90
13808;DHT22;40769;51.512;5.494;2022-10-16T10:37:58;24.10;99.90
13808;DHT22;40769;51.512;5.494;2022-10-16T10:45:58;23.90;99.90
13808;DHT22;40769;51.512;5.494;2022-10-16T10:51:17;23.70;99.90
13808;DHT22;40769;51.512;5.494;2022-10-16T10:54:00;23.60;99.90
13808;DHT22;40769;51.512;5.494;2022-10-16T10:56:46;23.70;99.90
13808;DHT22;40769;51.512;5.494;2022-10-16T10:59:28;23.70;99.90
13808;DHT22;40769;51.512;5.494;2022-10-16T11:07:52;24.00;99.90
13808;DHT22;40769;51.512;5.494;2022-10-16T11:10:22;24.10;99.90
13808;DHT22;40769;51.512;5.494;2022-10-16T11:12:57;24.10;99.90
13808;DHT22;40769;51.512;5.494;2022-10-16T11:15:29;24.20;99.90
13808;DHT22;40769;51.512;5.494;2022-10-16T11:20:27;24.30;99.90
13808;DHT22;40769;51.512;5.494;2022-10-16T11:25:36;24.30;99.90
13808;DHT22;40769;51.512;5.494;2022-10-16T11:30:57;24.30;99.90
13808;DHT22;40769;51.512;5.494;2022-10-16T11:36:04;24.30;99.90
13808;DHT22;40769;51.512;5.494;2022-10-16T11:38:46;24.30;99.90
13808;DHT22;40769;51.512;5.494;2022-10-16T11:41:32;24.30;99.90
13808;DHT22;40769;51.512;5.494;2022-10-16T11:44:12;24.20;99.90
13808;DHT22;40769;51.512;5.494;2022-10-16T11:46:41;24.00;99.90
13808;DHT22;40769;51.512;5.494;2022-10-16T11:49:16;23.80;99.90
13808;DHT22;40769;51.512;5.494;2022-10-16T11:51:50;23.60;99.90
13808;DHT22;40769;51.512;5.494;2022-10-16T11:54:49;23.50;99.90
13808;DHT22;40769;51.512;5.494;2022-10-16T11:57:28;23.30;99.90
13808;DHT22;40769;51.512;5.494;2022-10-16T12:05:31;22.90;99.90
13808;DHT22;40769;51.512;5.494;2022-10-16T12:08:16;22.80;99.90
13808;DHT22;40769;51.512;5.494;2022-10-16T12:10:45;22.80;99.90
13808;DHT22;40769;51.512;5.494;2022-10-16T12:13:47;22.80;99.90
13808;DHT22;40769;51.512;5.494;2022-10-16T12:18:44;23.00;99.90
13808;DHT22;40769;51.512;5.494;2022-10-16T12:21:11;23.00;99.90
13808;DHT22;40769;51.512;5.494;2022-10-16T12:26:14;23.30;99.90
13808;DHT22;40769;51.512;5.494;2022-10-16T12:28:48;23.30;99.90
13808;DHT22;40769;51.512;5.494;2022-10-16T12:31:16;23.40;99.90
13808;DHT22;40769;51.512;5.494;2022-10-16T12:33:58;23.40;99.90
13808;DHT22;40769;51.512;5.494;2022-10-16T12:36:33;23.40;99.90
13808;DHT22;40769;51.512;5.494;2022-10-16T12:38:59;23.40;99.90
13808;DHT22;40769;51.512;5.494;2022-10-16T12:41:32;23.40;99.90
13808;DHT22;40769;51.512;5.494;2022-10-16T12:43:58;23.40;99.90
13808;DHT22;40769;51.512;5.494;2022-10-16T12:57:09;23.60;99.90
13808;DHT22;40769;51.512;5.494;2022-10-16T13:05:26;23.70;99.90
13808;DHT22;40769;51.512;5.494;2022-10-16T13:10:46;23.90;99.90
13808;DHT22;40769;51.512;5.494;2022-10-16T13:30:17;24.30;99.90
13808;DHT22;40769;51.512;5.494;2022-10-16T13:32:48;24.30;99.90
13808;DHT22;40769;51.512;5.494;2022-10-16T13:35:27;24.50;99.90
13808;DHT22;40769;51.512;5.494;2022-10-16T13:38:14;24.50;99.90
13808;DHT22;40769;51.512;5.494;2022-10-16T13:40:50;24.60;99.90
13808;DHT22;40769;51.512;5.494;2022-10-16T13:43:18;24.70;99.90
13808;DHT22;40769;51.512;5.494;2022-10-16T13:45:53;24.70;99.90
13808;DHT22;40769;51.512;5.494;2022-10-16T13:48:19;24.70;99.90
13808;DHT22;40769;51.512;5.494;2022-10-16T13:50:45;24.70;99.90
13808;DHT22;40769;51.512;5.494;2022-10-16T13:53:14;24.60;99.90
13808;DHT22;40769;51.512;5.494;2022-10-16T13:55:40;24.60;99.90
13808;DHT22;40769;51.512;5.494;2022-10-16T13:58:12;24.50;99.90
13808;DHT22;40769;51.512;5.494;2022-10-16T14:00:38;24.50;99.90
13808;DHT22;40769;51.512;5.494;2022-10-16T14:03:13;24.40;99.90
13808;DHT22;40769;51.512;5.494;2022-10-16T14:05:49;24.30;99.90
13808;DHT22;40769;51.512;5.494;2022-10-16T14:08:16;24.20;99.90
13808;DHT22;40769;51.512;5.494;2022-10-16T14:10:42;24.10;99.90
13808;DHT22;40769;51.512;5.494;2022-10-16T14:13:12;24.00;99.90
13808;DHT22;40769;51.512;5.494;2022-10-16T14:15:49;23.90;99.90
13808;DHT22;40769;51.512;5.494;2022-10-16T14:18:19;23.90;99.90
13808;DHT22;40769;51.512;5.494;2022-10-16T14:20:46;23.80;99.90
13808;DHT22;40769;51.512;5.494;2022-10-16T14:23:33;23.70;99.90
13808;DHT22;40769;51.512;5.494;2022-10-16T14:26:26;23.60;99.90
13808;DHT22;40769;51.512;5.494;2022-10-16T14:31:36;23.30;99.90
13808;DHT22;40769;51.512;5.494;2022-10-16T14:34:03;23.20;99.90
13808;DHT22;40769;51.512;5.494;2022-10-16T14:36:29;23.20;99.90
13808;DHT22;40769;51.512;5.494;2022-10-16T14:39:04;23.10;99.90
13808;DHT22;40769;51.512;5.494;2022-10-16T14:41:32;23.00;99.90
13808;DHT22;40769;51.512;5.494;2022-10-16T14:44:05;22.90;99.90
13808;DHT22;40769;51.512;5.494;2022-10-16T14:46:39;22.80;99.90
13808;DHT22;40769;51.512;5.494;2022-10-16T14:51:38;22.80;99.90
13808;DHT22;40769;51.512;5.494;2022-10-16T14:54:25;22.80;99.90
13808;DHT22;40769;51.512;5.494;2022-10-16T14:56:53;22.80;99.90
13808;DHT22;40769;51.512;5.494;2022-10-16T14:59:27;22.90;99.90
13808;DHT22;40769;51.512;5.494;2022-10-16T15:01:53;22.90;99.90
13808;DHT22;40769;51.512;5.494;2022-10-16T15:04:19;23.00;99.90
13808;DHT22;40769;51.512;5.494;2022-10-16T15:06:45;23.10;99.90
13808;DHT22;40769;51.512;5.494;2022-10-16T15:09:10;23.20;99.90
13808;DHT22;40769;51.512;5.494;2022-10-16T15:11:36;23.30;99.90
13808;DHT22;40769;51.512;5.494;2022-10-16T15:14:03;23.50;99.90
13808;DHT22;40769;51.512;5.494;2022-10-16T15:16:29;23.40;99.90
13808;DHT22;40769;51.512;5.494;2022-10-16T15:18:55;23.40;99.90
13808;DHT22;40769;51.512;5.494;2022-10-16T15:21:25;23.40;99.90
13808;DHT22;40769;51.512;5.494;2022-10-16T15:23:52;23.40;99.90
13808;DHT22;40769;51.512;5.494;2022-10-16T15:26:17;23.30;99.90
13808;DHT22;40769;51.512;5.494;2022-10-16T15:28:43;23.20;99.90
13808;DHT22;40769;51.512;5.494;2022-10-16T15:31:08;23.10;99.90
13808;DHT22;40769;51.512;5.494;2022-10-16T15:33:34;23.00;99.90
13808;DHT22;40769;51.512;5.494;2022-10-16T15:36:01;22.70;99.90
13808;DHT22;40769;51.512;5.494;2022-10-16T15:38:27;22.70;99.90
13808;DHT22;40769;51.512;5.494;2022-10-16T15:40:54;22.60;99.90
13808;DHT22;40769;51.512;5.494;2022-10-16T15:43:20;22.50;99.90
13808;DHT22;40769;51.512;5.494;2022-10-16T15:46:04;22.40;99.90
13808;DHT22;40769;51.512;5.494;2022-10-16T15:48:32;22.30;99.90
13808;DHT22;40769;51.512;5.494;2022-10-16T15:50:59;22.20;99.90
13808;DHT22;40769;51.512;5.494;2022-10-16T15:53:24;22.10;99.90
13808;DHT22;40769;51.512;5.494;2022-10-16T15:55:50;22.00;99.90
13808;DHT22;40769;51.512;5.494;2022-10-16T15:58:16;21.90;99.90
13808;DHT22;40769;51.512;5.494;2022-10-16T16:00:42;21.80;99.90
13808;DHT22;40769;51.512;5.494;2022-10-16T16:03:07;21.70;99.90
13808;DHT22;40769;51.512;5.494;2022-10-16T16:05:33;21.60;99.90
13808;DHT22;40769;51.512;5.494;2022-10-16T16:08:00;21.60;99.90
13808;DHT22;40769;51.512;5.494;2022-10-16T16:10:26;21.50;99.90
13808;DHT22;40769;51.512;5.494;2022-10-16T16:12:51;21.40;99.90
13808;DHT22;40769;51.512;5.494;2022-10-16T16:15:21;21.30;99.90
13808;DHT22;40769;51.512;5.494;2022-10-16T16:17:48;21.30;99.90
13808;DHT22;40769;51.512;5.494;2022-10-16T16:20:13;21.20;99.90
13808;DHT22;40769;51.512;5.494;2022-10-16T16:22:39;21.10;99.90
13808;DHT22;40769;51.512;5.494;2022-10-16T16:25:05;21.00;99.90
13808;DHT22;40769;51.512;5.494;2022-10-16T16:27:31;21.00;99.90
13808;DHT22;40769;51.512;5.494;2022-10-16T16:29:59;20.90;99.90
13808;DHT22;40769;51.512;5.494;2022-10-16T16:32:24;20.80;99.90
13808;DHT22;40769;51.512;5.494;2022-10-16T16:34:50;20.80;99.90
13808;DHT22;40769;51.512;5.494;2022-10-16T16:37:16;20.80;99.90
13808;DHT22;40769;51.512;5.494;2022-10-16T16:39:41;20.60;99.90
13808;DHT22;40769;51.512;5.494;2022-10-16T16:42:07;20.60;99.90
13808;DHT22;40769;51.512;5.494;2022-10-16T16:44:33;20.50;99.90
13808;DHT22;40769;51.512;5.494;2022-10-16T16:47:01;20.40;99.90
13808;DHT22;40769;51.512;5.494;2022-10-16T16:49:27;20.40;99.90
13808;DHT22;40769;51.512;5.494;2022-10-16T16:51:53;20.30;99.90
13808;DHT22;40769;51.512;5.494;2022-10-16T16:54:19;20.30;99.90
13808;DHT22;40769;51.512;5.494;2022-10-16T16:56:44;20.20;99.90
13808;DHT22;40769;51.512;5.494;2022-10-16T16:59:13;20.20;99.90
13808;DHT22;40769;51.512;5.494;2022-10-16T17:01:40;20.10;99.90
13808;DHT22;40769;51.512;5.494;2022-10-16T17:04:06;20.10;99.90
13808;DHT22;40769;51.512;5.494;2022-10-16T17:06:32;20.10;99.90
13808;DHT22;40769;51.512;5.494;2022-10-16T17:08:58;20.00;99.90
13808;DHT22;40769;51.512;5.494;2022-10-16T17:11:26;20.00;99.90
13808;DHT22;40769;51.512;5.494;2022-10-16T17:13:53;19.90;99.90
13808;DHT22;40769;51.512;5.494;2022-10-16T17:16:20;19.90;99.90
13808;DHT22;40769;51.512;5.494;2022-10-16T17:18:45;19.90;99.90
13808;DHT22;40769;51.512;5.494;2022-10-16T17:21:11;19.90;99.90
13808;DHT22;40769;51.512;5.494;2022-10-16T17:23:37;19.90;99.90
13808;DHT22;40769;51.512;5.494;2022-10-16T17:26:10;19.80;99.90
13808;DHT22;40769;51.512;5.494;2022-10-16T17:28:35;19.80;99.90
13808;DHT22;40769;51.512;5.494;2022-10-16T17:31:16;19.70;99.90
13808;DHT22;40769;51.512;5.494;2022-10-16T17:33:43;19.80;99.90
13808;DHT22;40769;51.512;5.494;2022-10-16T17:36:09;19.70;99.90
13808;DHT22;40769;51.512;5.494;2022-10-16T17:38:36;19.70;99.90
13808;DHT22;40769;51.512;5.494;2022-10-16T17:41:20;19.70;99.90